createdAt,value
2023-04-09T06:01:27.159Z,17.73
2023-04-09T06:03:57.112Z,17.95
2023-04-09T06:06:24.688Z,18.63
2023-04-09T06:08:51.278Z,17.15
2023-04-09T06:11:17.784Z,18.05
2023-04-09T06:13:44.322Z,18.40
2023-04-09T06:16:10.801Z,18.65
2023-04-09T06:18:37.291Z,17.42
2023-04-09T06:21:04.682Z,17.27
2023-04-09T06:23:31.559Z,16.95
2023-04-09T06:25:57.962Z,17.52
2023-04-09T06:28:24.385Z,16.83
2023-04-09T06:30:50.852Z,17.55
2023-04-09T06:33:17.343Z,17.20
2023-04-09T06:35:43.811Z,16.67
2023-04-09T06:38:10.222Z,17.30
2023-04-09T06:40:38.551Z,16.73
2023-04-09T06:43:08.232Z,16.27
2023-04-09T06:45:51.977Z,16.58
2023-04-09T06:48:18.384Z,16.55
2023-04-09T06:50:45.259Z,16.35
2023-04-09T06:53:11.754Z,16.17
2023-04-09T06:55:38.259Z,16.15
2023-04-09T06:58:04.834Z,15.80
2023-04-09T07:00:31.636Z,15.23
2023-04-09T07:02:58.349Z,14.95
2023-04-09T07:05:24.978Z,14.80
2023-04-09T07:07:51.445Z,15.40
2023-04-09T07:10:17.938Z,14.77
2023-04-09T07:12:44.397Z,15.30
2023-04-09T07:15:10.814Z,15.55
2023-04-09T07:17:37.270Z,16.48
2023-04-09T07:20:03.952Z,16.08
2023-04-09T07:22:31.016Z,15.48
2023-04-09T07:24:57.614Z,15.88
2023-04-09T07:27:27.765Z,16.00
2023-04-09T07:29:55.740Z,15.85
2023-04-09T07:32:22.558Z,14.90
2023-04-09T07:34:51.382Z,15.27
2023-04-09T07:37:17.893Z,14.65
2023-04-09T07:39:44.788Z,13.95
2023-04-09T07:42:11.253Z,13.18
2023-04-09T07:44:38.604Z,12.95
2023-04-09T07:47:06.854Z,12.00
2023-04-09T07:49:33.577Z,12.95
2023-04-09T07:52:00.218Z,13.65
2023-04-09T07:54:26.720Z,14.18
2023-04-09T07:56:53.157Z,14.18
2023-04-09T07:59:19.550Z,14.00
2023-04-09T08:01:46.011Z,14.68
2023-04-09T08:04:13.505Z,14.27
2023-04-09T08:06:40.226Z,14.45
2023-04-09T08:09:07.098Z,15.18
2023-04-09T08:11:33.720Z,14.18
2023-04-09T08:14:04.477Z,15.13
2023-04-09T08:16:31.066Z,14.60
2023-04-09T08:18:57.660Z,15.30
2023-04-09T08:21:24.126Z,14.75
2023-04-09T08:23:51.148Z,15.23
2023-04-09T08:26:17.915Z,15.60
2023-04-09T08:28:44.594Z,15.73
2023-04-09T08:31:11.054Z,14.82
2023-04-09T08:33:37.571Z,15.60
2023-04-09T08:36:08.379Z,15.30
2023-04-09T08:38:34.828Z,13.00
2023-04-09T08:41:01.249Z,12.55
2023-04-09T08:43:41.907Z,12.05
2023-04-09T08:46:18.046Z,12.93
2023-04-09T08:48:46.403Z,13.88
2023-04-09T08:51:14.493Z,14.68
2023-04-09T08:53:44.973Z,13.32
2023-04-09T08:56:11.642Z,12.20
2023-04-09T08:58:39.778Z,12.32
2023-04-09T09:01:18.728Z,10.43
2023-04-09T09:03:59.216Z,10.27
2023-04-09T09:06:28.723Z,10.00
2023-04-09T09:09:16.138Z,10.60
2023-04-09T09:11:48.400Z,10.10
2023-04-09T09:14:16.988Z,9.55
2023-04-09T09:16:57.622Z,10.23
2023-04-09T09:19:24.157Z,9.52
2023-04-09T09:22:04.088Z,10.00
2023-04-09T09:24:32.223Z,9.52
2023-04-09T09:26:58.855Z,10.50
2023-04-09T09:29:25.888Z,8.15
2023-04-09T09:31:53.524Z,8.52
2023-04-09T09:34:22.033Z,7.50
2023-04-09T09:36:48.826Z,7.53
2023-04-09T09:39:17.271Z,7.53
2023-04-09T09:41:47.238Z,8.10
2023-04-09T09:44:31.551Z,8.07
2023-04-09T09:46:58.919Z,9.48
2023-04-09T09:49:25.420Z,9.25
2023-04-09T09:51:52.746Z,8.55
2023-04-09T09:54:22.483Z,8.48
2023-04-09T09:56:50.643Z,8.65
2023-04-09T09:59:24.620Z,9.02
2023-04-09T10:01:57.277Z,8.80
2023-04-09T10:04:24.425Z,8.98
2023-04-09T10:06:53.357Z,8.57
2023-04-09T10:09:21.279Z,8.05
2023-04-09T10:11:48.714Z,7.70
2023-04-09T10:14:16.933Z,7.57
2023-04-09T10:16:43.544Z,6.72
2023-04-09T10:19:13.997Z,6.43
2023-04-09T10:21:45.439Z,6.45
2023-04-09T10:24:12.025Z,5.90
2023-04-09T10:26:42.079Z,5.65
2023-04-09T10:29:13.873Z,5.55
2023-04-09T10:31:54.834Z,6.45
2023-04-09T10:34:23.377Z,7.55
2023-04-09T10:36:53.379Z,8.38
2023-04-09T10:39:19.879Z,7.47
2023-04-09T10:41:46.798Z,7.55
2023-04-09T10:44:35.929Z,8.13
2023-04-09T10:49:39.028Z,8.15
2023-04-09T10:52:09.550Z,7.43
2023-04-09T10:54:38.911Z,7.13
2023-04-09T10:57:11.322Z,7.40
2023-04-09T10:59:41.075Z,6.78
2023-04-09T11:02:09.425Z,6.40
2023-04-09T11:05:17.970Z,6.33
2023-04-09T11:07:47.024Z,6.25
2023-04-09T11:10:13.501Z,5.78
2023-04-09T11:12:40.133Z,5.40
2023-04-09T11:15:07.076Z,5.45
2023-04-09T11:17:36.426Z,5.97
2023-04-09T11:20:03.561Z,5.38
2023-04-09T11:22:30.244Z,5.22
2023-04-09T11:24:56.827Z,5.50
2023-04-09T11:27:23.583Z,5.60
2023-04-09T11:29:55.645Z,5.85
2023-04-09T11:32:22.272Z,5.45
2023-04-09T11:34:48.767Z,5.53
2023-04-09T11:37:16.998Z,5.55
2023-04-09T11:39:46.817Z,5.78
2023-04-09T11:42:16.065Z,5.40
2023-04-09T11:47:09.623Z,5.50
2023-04-09T11:49:36.113Z,5.82
2023-04-09T11:52:04.181Z,5.55
2023-04-09T11:54:34.141Z,6.10
2023-04-09T11:57:01.710Z,5.40
2023-04-09T11:59:28.193Z,5.53
2023-04-09T12:01:57.600Z,5.60
2023-04-09T12:04:24.570Z,5.43
2023-04-09T12:06:51.180Z,5.90
2023-04-09T12:09:17.789Z,5.55
2023-04-09T12:11:44.500Z,5.65
2023-04-09T12:14:16.244Z,6.03
2023-04-09T12:16:45.797Z,5.43
2023-04-09T12:19:12.851Z,5.53
2023-04-09T12:21:58.350Z,5.18
2023-04-09T12:24:25.985Z,5.53
2023-04-09T12:26:52.658Z,5.55
2023-04-09T12:29:20.806Z,5.43
2023-04-09T12:31:47.341Z,4.75
2023-04-09T12:34:14.055Z,5.00
2023-04-09T12:36:43.856Z,5.30
2023-04-09T12:39:10.455Z,5.20
2023-04-09T12:41:37.032Z,5.60
2023-04-09T12:44:03.506Z,5.57
2023-04-09T12:46:32.179Z,5.53
2023-04-09T12:48:58.744Z,5.53
2023-04-09T12:51:25.683Z,5.13
2023-04-09T12:53:52.442Z,4.82
2023-04-09T12:56:19.058Z,4.68
2023-04-09T12:58:45.594Z,4.82
2023-04-09T13:01:12.102Z,4.90
2023-04-09T13:03:41.144Z,4.75
2023-04-09T13:06:08.197Z,4.80
2023-04-09T13:08:34.677Z,4.60
2023-04-09T13:11:01.162Z,4.75
2023-04-09T13:13:28.668Z,4.90
2023-04-09T13:15:55.310Z,5.47
2023-04-09T13:18:21.709Z,5.30
2023-04-09T13:20:48.144Z,5.20
2023-04-09T13:23:14.583Z,5.22
2023-04-09T13:25:41.132Z,4.80
2023-04-09T13:28:07.688Z,4.65
2023-04-09T13:30:34.209Z,4.50
2023-04-09T13:33:00.710Z,4.65
2023-04-09T13:35:27.242Z,4.43
2023-04-09T13:37:53.738Z,3.65
2023-04-09T13:40:20.170Z,3.65
2023-04-09T13:42:46.809Z,3.47
2023-04-09T13:45:13.242Z,3.25
2023-04-09T13:47:39.714Z,3.55
2023-04-09T13:50:07.362Z,3.78
2023-04-09T13:52:33.844Z,3.60
2023-04-09T13:55:00.471Z,3.20
2023-04-09T13:57:27.222Z,3.25
2023-04-09T13:59:53.647Z,3.17
2023-04-09T14:02:20.500Z,3.20
2023-04-09T14:04:47.410Z,3.00
2023-04-09T14:07:13.852Z,3.55
2023-04-09T14:09:40.385Z,3.08
2023-04-09T14:12:07.015Z,3.30
2023-04-09T14:14:33.455Z,3.53
2023-04-09T14:17:00.024Z,3.30
2023-04-09T14:19:26.560Z,3.10
2023-04-09T14:21:55.144Z,3.63
2023-04-09T14:24:23.033Z,2.85
2023-04-09T14:26:51.362Z,3.10
2023-04-09T14:29:17.765Z,3.23
2023-04-09T14:31:44.321Z,3.40
2023-04-09T14:34:10.875Z,3.67
2023-04-09T14:36:37.402Z,3.10
2023-04-09T14:39:03.995Z,3.20
2023-04-09T14:41:30.606Z,3.10
2023-04-09T14:43:57.043Z,3.22
2023-04-09T14:46:23.540Z,3.10
2023-04-09T14:48:50.314Z,2.80
2023-04-09T14:51:17.082Z,2.83
2023-04-09T14:53:43.825Z,2.92
2023-04-09T14:56:10.257Z,2.78
2023-04-09T14:58:36.674Z,3.13
2023-04-09T15:01:04.158Z,3.35
2023-04-09T15:03:30.796Z,3.50
2023-04-09T15:05:57.340Z,2.90
2023-04-09T15:08:23.901Z,3.13
2023-04-09T15:10:51.070Z,3.20
2023-04-09T15:13:17.507Z,2.83
2023-04-09T15:15:44.789Z,2.78
2023-04-09T15:18:11.272Z,2.92
2023-04-09T15:20:38.995Z,3.00
2023-04-09T15:23:05.449Z,3.00
2023-04-09T15:25:32.618Z,2.55
2023-04-09T15:27:59.230Z,3.10
2023-04-09T15:30:26.387Z,3.05
2023-04-09T15:32:52.981Z,2.67
2023-04-09T15:35:24.814Z,2.75
2023-04-09T15:37:51.696Z,2.67
2023-04-09T15:40:18.691Z,2.70
2023-04-09T15:42:45.238Z,3.10
2023-04-09T15:45:12.722Z,2.60
2023-04-09T15:47:39.185Z,2.78
2023-04-09T15:50:06.177Z,2.80
2023-04-09T15:52:32.710Z,2.38
2023-04-09T15:54:59.220Z,2.50
2023-04-09T15:57:25.674Z,2.70
2023-04-09T15:59:52.504Z,2.50
2023-04-09T16:02:19.394Z,2.30
2023-04-09T16:04:45.985Z,2.00
2023-04-09T16:07:16.051Z,2.45
2023-04-09T16:09:42.756Z,2.25
2023-04-09T16:12:09.359Z,2.38
2023-04-09T16:14:36.385Z,2.22
2023-04-09T16:17:02.862Z,2.47
2023-04-09T16:19:29.412Z,2.20
2023-04-09T16:21:57.554Z,2.20
2023-04-09T16:24:23.930Z,2.63
2023-04-09T16:26:50.379Z,2.40
2023-04-09T16:29:17.729Z,2.22
2023-04-09T16:31:44.265Z,2.30
2023-04-09T16:34:10.903Z,2.00
2023-04-09T16:36:37.421Z,1.80
2023-04-09T16:39:05.025Z,2.30
2023-04-09T16:41:31.811Z,2.40
2023-04-09T16:43:58.284Z,2.40
2023-04-09T16:46:25.010Z,2.38
2023-04-09T16:48:51.742Z,2.33
2023-04-09T16:51:18.352Z,2.28
2023-04-09T16:53:44.829Z,2.35
2023-04-09T16:56:11.399Z,2.38
2023-04-09T16:58:37.942Z,2.33
2023-04-09T17:01:04.808Z,2.30
2023-04-09T17:03:31.396Z,2.10
2023-04-09T17:05:57.990Z,2.03
2023-04-09T17:08:24.486Z,2.10
2023-04-09T17:10:51.823Z,2.25
2023-04-09T17:13:18.235Z,1.95
2023-04-09T17:15:44.673Z,2.05
2023-04-09T17:18:11.494Z,2.30
2023-04-09T17:20:37.948Z,2.22
2023-04-09T17:23:04.726Z,2.03
2023-04-09T17:25:31.125Z,1.90
2023-04-09T17:27:57.862Z,2.53
2023-04-09T17:30:24.290Z,2.90
2023-04-09T17:32:51.006Z,2.50
2023-04-09T17:35:17.577Z,2.53
2023-04-09T17:37:44.006Z,2.88
2023-04-09T17:40:12.470Z,2.65
2023-04-09T17:42:38.939Z,2.70
2023-04-09T17:45:06.552Z,3.00
2023-04-09T17:47:33.082Z,2.50
2023-04-09T17:49:59.842Z,2.85
2023-04-09T17:52:26.417Z,2.88
2023-04-09T17:54:52.980Z,4.20
2023-04-09T17:57:19.539Z,3.92
2023-04-09T17:59:46.113Z,2.80
2023-04-09T18:02:12.745Z,2.53
2023-04-09T18:04:39.510Z,2.65
2023-04-09T18:07:06.102Z,2.92
2023-04-09T18:09:32.746Z,2.70
2023-04-09T18:12:01.189Z,2.50
2023-04-09T18:14:27.663Z,2.53
2023-04-09T18:16:54.578Z,2.70
2023-04-09T18:19:21.258Z,2.70
2023-04-09T18:21:47.722Z,3.15
2023-04-09T18:24:14.158Z,2.60
2023-04-09T18:26:40.742Z,2.67
2023-04-09T18:29:08.355Z,2.95
2023-04-09T18:31:34.837Z,2.88
2023-04-09T18:34:01.384Z,2.58
2023-04-09T18:36:28.207Z,2.70
2023-04-09T18:38:55.931Z,2.88
2023-04-09T18:41:26.142Z,2.80
2023-04-09T18:43:53.068Z,2.70
2023-04-09T18:46:19.633Z,2.97
2023-04-09T18:48:49.114Z,3.10
2023-04-09T18:53:42.302Z,2.95
2023-04-09T18:56:09.314Z,3.03
2023-04-09T18:58:36.251Z,3.15
2023-04-09T19:01:10.908Z,2.67
2023-04-09T19:03:37.910Z,2.83
2023-04-09T19:06:15.645Z,3.10
2023-04-09T19:08:42.188Z,3.20
2023-04-09T19:11:08.917Z,3.03
2023-04-09T19:13:36.714Z,3.05
2023-04-09T19:16:03.607Z,3.58
2023-04-09T19:18:30.967Z,3.30
2023-04-09T19:20:57.557Z,3.40
2023-04-09T19:23:24.520Z,3.17
2023-04-09T19:25:55.016Z,3.03
2023-04-09T19:28:22.196Z,4.30
2023-04-09T19:30:52.188Z,3.63
2023-04-09T19:33:20.833Z,3.50
2023-04-09T19:35:51.713Z,3.53
2023-04-09T19:38:19.216Z,3.53
2023-04-09T19:40:46.127Z,3.70
2023-04-09T19:43:12.702Z,3.58
2023-04-09T19:45:39.721Z,3.47
2023-04-09T19:48:07.084Z,3.80
2023-04-09T19:50:38.840Z,3.88
2023-04-09T19:53:08.187Z,4.30
2023-04-09T19:55:35.239Z,3.65
2023-04-09T19:58:02.445Z,3.78
2023-04-09T20:00:33.263Z,4.13
2023-04-09T20:03:00.568Z,3.97
2023-04-09T20:05:29.045Z,4.03
2023-04-09T20:10:41.113Z,4.00
2023-04-09T20:13:08.807Z,4.45
2023-04-09T20:15:35.842Z,4.53
2023-04-09T20:18:02.670Z,4.28
2023-04-09T20:20:38.839Z,4.15
2023-04-09T20:23:05.855Z,4.55
2023-04-09T20:25:37.890Z,4.50
2023-04-09T20:28:04.802Z,4.80
2023-04-09T20:30:32.216Z,3.97
2023-04-09T20:33:00.227Z,4.20
2023-04-09T20:35:27.310Z,4.80
2023-04-09T20:37:55.201Z,4.60
2023-04-09T20:40:22.314Z,4.72
2023-04-09T20:45:19.242Z,4.43
2023-04-09T20:47:46.727Z,4.93
2023-04-09T20:50:13.671Z,4.63
2023-04-09T20:52:40.606Z,4.85
2023-04-09T20:55:07.750Z,5.03
2023-04-09T20:57:34.574Z,4.75
2023-04-09T21:00:01.632Z,5.00
2023-04-09T21:02:33.528Z,4.78
2023-04-09T21:05:08.390Z,4.40
2023-04-09T21:07:48.163Z,5.35
2023-04-09T21:10:17.648Z,4.68
2023-04-09T21:12:44.390Z,5.00
2023-04-09T21:15:11.508Z,4.90
2023-04-09T21:23:51.696Z,5.10
2023-04-09T21:26:21.074Z,5.05
2023-04-09T21:31:52.397Z,4.88
2023-04-09T21:34:19.246Z,4.78
2023-04-09T21:36:47.310Z,4.60
2023-04-09T21:39:18.235Z,5.10
2023-04-09T21:41:47.501Z,4.80
2023-04-09T21:44:14.610Z,5.13
2023-04-09T21:46:41.790Z,5.25
2023-04-09T21:49:08.697Z,5.05
2023-04-09T21:51:35.789Z,4.90
2023-04-09T21:54:08.821Z,5.40
2023-04-09T21:56:38.883Z,5.15
2023-04-09T22:02:20.285Z,5.18
2023-04-09T22:04:47.382Z,5.30
2023-04-09T22:07:14.386Z,5.30
2023-04-09T22:09:41.334Z,5.40
2023-04-09T22:12:10.468Z,5.35
2023-04-09T22:14:37.590Z,5.57
2023-04-09T22:17:05.448Z,5.50
2023-04-09T22:19:35.463Z,5.45
2023-04-09T22:22:02.252Z,5.75
2023-04-09T22:24:30.271Z,5.90
2023-04-09T22:26:58.954Z,5.80
2023-04-09T22:29:26.715Z,5.35
2023-04-09T22:31:54.207Z,6.00
2023-04-09T22:34:22.080Z,5.70
2023-04-09T22:36:50.686Z,5.90
2023-04-09T22:51:15.637Z,6.05
2023-04-09T22:53:42.479Z,6.07
2023-04-09T22:56:11.473Z,6.53
2023-04-09T23:01:23.507Z,6.18
2023-04-09T23:06:17.352Z,6.63
2023-04-09T23:08:44.294Z,6.32
2023-04-09T23:11:11.511Z,6.53
2023-04-09T23:13:38.743Z,6.53
2023-04-09T23:16:08.801Z,6.68
2023-04-09T23:55:23.002Z,7.80
